Time;durP1;ratioP1;P1;durP2;ratioP2;P2;SDS_P1;SDS_P2;PMS_P1;PMS_P2;Temp;Humidity;BMP_temperature;BMP_pressure;BME280_temperature;BME280_humidity;BME280_pressure;Samples;Min_cycle;Max_cycle;Signal;HPM_P1;HPM_P2
2022/05/18 00:00:13;;;;;;;0.00;0.00;;;15.40;99.90;;;;;;5053057;28;20483;-80
2022/05/18 00:02:39;;;;;;;0.00;0.00;;;15.50;99.90;;;;;;5073410;28;20033;-80
2022/05/18 00:05:06;;;;;;;0.00;0.00;;;15.70;99.90;;;;;;5074206;28;20395;-80
2022/05/18 00:07:33;;;;;;;0.05;0.05;;;15.70;99.90;;;;;;5071606;28;20037;-80
2022/05/18 00:09:59;;;;;;;0.00;0.00;;;15.70;99.90;;;;;;5066607;28;20016;-79
2022/05/18 00:12:25;;;;;;;0.00;0.00;;;15.90;99.90;;;;;;5070526;28;20044;-79
2022/05/18 00:14:52;;;;;;;0.00;0.00;;;16.00;99.90;;;;;;5049811;28;20024;-79
2022/05/18 00:17:18;;;;;;;0.00;0.00;;;16.10;99.90;;;;;;5051220;28;20056;-79
2022/05/18 00:19:44;;;;;;;0.00;0.00;;;16.00;99.90;;;;;;5071171;28;20023;-79
2022/05/18 00:22:12;;;;;;;0.00;0.00;;;16.20;99.90;;;;;;5047222;28;20025;-79
2022/05/18 00:24:38;;;;;;;0.00;0.00;;;16.40;99.90;;;;;;5070236;28;20435;-79
2022/05/18 00:27:04;;;;;;;0.00;0.00;;;16.60;99.90;;;;;;5069000;28;20380;-79
2022/05/18 00:29:34;;;;;;;0.00;0.00;;;16.90;99.90;;;;;;5067453;28;20052;-79
2022/05/18 00:32:01;;;;;;;0.00;0.00;;;17.00;99.90;;;;;;5068108;28;20379;-79
2022/05/18 00:34:30;;;;;;;0.00;0.00;;;17.10;99.90;;;;;;5070394;28;20051;-79
2022/05/18 00:36:56;;;;;;;0.00;0.00;;;17.60;99.90;;;;;;5068371;28;20483;-79
2022/05/18 00:39:22;;;;;;;0.00;0.00;;;18.30;99.90;;;;;;5066244;28;20032;-79
2022/05/18 00:41:48;;;;;;;0.00;0.00;;;19.10;99.90;;;;;;5048480;28;20476;-80
2022/05/18 00:44:14;;;;;;;0.00;0.00;;;19.70;99.90;;;;;;5063007;28;20040;-79
2022/05/18 00:46:41;;;;;;;0.00;0.00;;;20.50;93.70;;;;;;5064851;28;20031;-78
2022/05/18 00:49:08;;;;;;;0.00;0.00;;;20.90;91.30;;;;;;5067654;28;20503;-79
2022/05/18 00:51:47;;;;;;;0.35;0.35;;;21.60;81.80;;;;;;5071281;28;20107;-79
2022/05/18 00:54:23;;;;;;;0.00;0.00;;;22.10;72.10;;;;;;5061925;28;20128;-79
2022/05/18 00:57:04;;;;;;;0.00;0.00;;;23.00;70.60;;;;;;5067678;28;20036;-79
2022/05/18 00:59:38;;;;;;;0.00;0.00;;;23.60;65.30;;;;;;5066969;28;20127;-79
2022/05/18 01:02:06;;;;;;;0.00;0.00;;;24.20;62.90;;;;;;5066476;28;20032;-79
2022/05/18 01:04:32;;;;;;;0.00;0.00;;;24.80;58.90;;;;;;5050587;28;20635;-80
2022/05/18 01:07:03;;;;;;;0.00;0.00;;;25.10;57.40;;;;;;5067056;28;20025;-79
2022/05/18 01:09:37;;;;;;;0.00;0.00;;;25.40;55.10;;;;;;5067499;28;20021;-79
2022/05/18 01:12:04;;;;;;;0.00;0.00;;;25.50;54.40;;;;;;5067860;28;20507;-80
2022/05/18 01:14:57;;;;;;;0.00;0.00;;;25.30;53.50;;;;;;5066753;28;20031;-79
2022/05/18 01:17:30;;;;;;;0.00;0.00;;;24.70;54.60;;;;;;5073277;28;20072;-79
2022/05/18 01:20:09;;;;;;;0.00;0.00;;;24.60;53.10;;;;;;5080656;28;20020;-79
2022/05/18 01:23:02;;;;;;;0.00;0.00;;;24.40;52.40;;;;;;5065329;28;20062;-80
2022/05/18 01:26:04;;;;;;;;;;;;;;;;;;;;;
2022/05/18 01:28:38;;;;;;;0.00;0.00;;;24.30;56.40;;;;;;5075954;28;20031;-80
2022/05/18 01:31:05;;;;;;;0.00;0.00;;;24.30;55.80;;;;;;5075635;28;20123;-80
2022/05/18 01:33:36;;;;;;;0.00;0.00;;;24.70;55.20;;;;;;5077749;28;20027;-79
2022/05/18 01:36:04;;;;;;;0.00;0.00;;;25.00;50.80;;;;;;5059483;28;20031;-79
2022/05/18 01:38:31;;;;;;;0.00;0.00;;;25.50;49.40;;;;;;5072448;28;20506;-80
2022/05/18 01:41:13;;;;;;;0.00;0.00;;;25.20;52.60;;;;;;5079536;28;20024;-79
2022/05/18 01:43:54;;;;;;;0.00;0.00;;;25.20;53.00;;;;;;5078685;28;20074;-78
2022/05/18 01:46:21;;;;;;;0.05;0.05;;;25.20;52.00;;;;;;5058364;28;20020;-79
2022/05/18 01:48:51;;;;;;;0.00;0.00;;;25.40;52.10;;;;;;5078670;28;20107;-78
2022/05/18 01:51:33;;;;;;;0.90;0.90;;;25.40;51.40;;;;;;5073501;28;20024;-79
2022/05/18 01:53:59;;;;;;;0.00;0.00;;;25.50;49.30;;;;;;5077394;28;20013;-79
2022/05/18 01:56:25;;;;;;;0.00;0.00;;;25.70;47.00;;;;;;5077004;28;20028;-80
2022/05/18 01:58:52;;;;;;;0.00;0.00;;;25.70;48.40;;;;;;5057907;28;20028;-80
2022/05/18 02:01:20;;;;;;;0.00;0.00;;;25.90;47.50;;;;;;5075989;28;20023;-80
2022/05/18 02:03:47;;;;;;;2.92;2.83;;;26.00;48.70;;;;;;5075733;28;20027;-80
2022/05/18 02:06:14;;;;;;;0.00;0.00;;;25.50;48.30;;;;;;5080131;28;20028;-80
2022/05/18 02:08:42;;;;;;;0.60;0.60;;;26.30;46.10;;;;;;5070223;28;20074;-79
2022/05/18 02:11:17;;;;;;;0.00;0.00;;;27.10;44.60;;;;;;5048266;28;20051;-78
2022/05/18 02:13:44;;;;;;;0.00;0.00;;;27.50;43.40;;;;;;5071040;28;20056;-79
2022/05/18 02:16:10;;;;;;;0.28;0.28;;;28.00;42.00;;;;;;5068720;28;20056;-79
2022/05/18 02:18:36;;;;;;;0.00;0.00;;;27.20;44.50;;;;;;5074820;28;20032;-79
2022/05/18 02:21:05;;;;;;;0.00;0.00;;;27.80;42.70;;;;;;5072273;28;20119;-79
2022/05/18 02:23:32;;;;;;;0.20;0.20;;;28.80;40.10;;;;;;5043126;28;20032;-80
2022/05/18 02:25:58;;;;;;;2.28;2.15;;;29.40;39.60;;;;;;5068169;28;20033;-80
2022/05/18 02:28:25;;;;;;;0.35;0.35;;;29.50;38.80;;;;;;5067973;28;20028;-80
2022/05/18 02:30:52;;;;;;;0.00;0.00;;;29.40;40.10;;;;;;5066029;28;20048;-80
2022/05/18 02:33:19;;;;;;;0.00;0.00;;;30.10;38.50;;;;;;5071202;28;20503;-80
2022/05/18 02:35:45;;;;;;;0.25;0.25;;;30.40;37.50;;;;;;5072299;28;20033;-79
2022/05/18 02:38:11;;;;;;;0.00;0.00;;;30.50;37.30;;;;;;5076260;28;20025;-79
2022/05/18 02:40:37;;;;;;;3.33;2.92;;;30.40;36.90;;;;;;5064462;28;20143;-80
2022/05/18 02:43:03;;;;;;;0.00;0.00;;;29.20;37.40;;;;;;5066003;28;20506;-80
2022/05/18 02:45:29;;;;;;;0.00;0.00;;;29.90;37.30;;;;;;5068785;28;20025;-79
2022/05/18 02:47:56;;;;;;;7.75;2.88;;;29.90;37.00;;;;;;5065474;28;20516;-79
2022/05/18 02:50:22;;;;;;;0.17;0.17;;;30.20;37.00;;;;;;5073184;28;20075;-79
2022/05/18 02:52:48;;;;;;;0.00;0.00;;;30.50;36.40;;;;;;5068061;28;20391;-79
2022/05/18 02:57:59;;;;;;;0.40;0.40;;;31.20;36.00;;;;;;5065172;28;20093;-80
2022/05/18 03:00:26;;;;;;;4.57;1.00;;;30.90;34.80;;;;;;5071453;28;20467;-79
2022/05/18 03:02:55;;;;;;;3.88;3.20;;;30.60;35.10;;;;;;5065694;28;20036;-81
2022/05/18 03:05:22;;;;;;;0.32;0.32;;;30.20;35.90;;;;;;5060270;28;20360;-81
2022/05/18 03:07:48;;;;;;;0.13;0.13;;;30.20;35.90;;;;;;5040192;28;20123;-80
2022/05/18 03:13:28;;;;;;;1.17;1.17;;;30.70;35.60;;;;;;5057110;28;20160;-80
2022/05/18 03:16:00;;;;;;;1.55;1.48;;;30.60;35.90;;;;;;5063079;28;20444;-80
2022/05/18 03:18:46;;;;;;;0.45;0.45;;;31.10;35.90;;;;;;5064137;28;20056;-81
2022/05/18 03:24:03;;;;;;;0.00;0.00;;;30.30;36.80;;;;;;5068144;28;20065;-81
2022/05/18 03:26:31;;;;;;;0.55;0.55;;;30.10;37.00;;;;;;5048635;28;20032;-79
2022/05/18 03:28:58;;;;;;;0.00;0.00;;;30.60;36.60;;;;;;5052202;28;20060;-80
2022/05/18 03:31:25;;;;;;;0.00;0.00;;;30.60;36.80;;;;;;5069652;28;20098;-80
2022/05/18 03:33:56;;;;;;;0.15;0.15;;;30.30;37.40;;;;;;5066607;28;20044;-79
2022/05/18 03:36:23;;;;;;;0.00;0.00;;;30.40;37.30;;;;;;5065258;28;21183;-79
2022/05/18 03:38:51;;;;;;;0.03;0.03;;;30.00;37.70;;;;;;5045563;28;20016;-79
2022/05/18 03:41:18;;;;;;;0.22;0.22;;;29.70;38.40;;;;;;5064181;28;20422;-79
2022/05/18 03:44:07;;;;;;;0.20;0.20;;;29.10;38.70;;;;;;5048102;28;20067;-79
2022/05/18 03:46:34;;;;;;;0.08;0.08;;;28.40;40.20;;;;;;5052606;28;20483;-79
2022/05/18 03:49:00;;;;;;;0.00;0.00;;;27.70;41.80;;;;;;5052235;28;20044;-79
2022/05/18 03:51:30;;;;;;;0.00;0.00;;;27.50;42.30;;;;;;5046660;28;20078;-79
2022/05/18 03:53:57;;;;;;;0.20;0.20;;;27.00;43.90;;;;;;5064832;28;20371;-80
2022/05/18 03:56:26;;;;;;;0.75;0.75;;;26.20;46.20;;;;;;5060128;28;20080;-79
2022/05/18 03:58:52;;;;;;;0.20;0.20;;;26.30;45.90;;;;;;5064966;28;20036;-80
2022/05/18 04:01:18;;;;;;;25.65;22.92;;;26.30;46.10;;;;;;5067121;28;20036;-79
2022/05/18 04:03:46;;;;;;;0.65;0.22;;;26.30;46.00;;;;;;5063983;28;20391;-79
2022/05/18 04:06:14;;;;;;;0.22;0.10;;;26.60;46.60;;;;;;5064760;28;20025;-79
2022/05/18 04:08:40;;;;;;;0.10;0.10;;;26.70;46.20;;;;;;5060894;28;20463;-80
2022/05/18 04:11:07;;;;;;;0.00;0.00;;;26.00;47.50;;;;;;5064520;28;20263;-80
2022/05/18 04:13:34;;;;;;;0.20;0.20;;;26.10;47.90;;;;;;5050660;28;20032;-80
2022/05/18 04:16:01;;;;;;;0.00;0.00;;;25.70;48.40;;;;;;5059674;28;20378;-81
2022/05/18 04:18:27;;;;;;;1.23;1.23;;;25.40;49.50;;;;;;5063751;28;20033;-80
2022/05/18 04:20:54;;;;;;;0.00;0.00;;;25.30;50.60;;;;;;5062010;28;20072;-81
2022/05/18 04:23:24;;;;;;;4.90;0.98;;;25.50;50.10;;;;;;5066342;28;20521;-80
2022/05/18 04:25:51;;;;;;;0.00;0.00;;;25.80;49.20;;;;;;5041749;28;20044;-80
2022/05/18 04:28:18;;;;;;;0.00;0.00;;;26.00;49.40;;;;;;5063893;28;20025;-80
2022/05/18 04:30:47;;;;;;;2.22;0.88;;;25.40;51.20;;;;;;5046011;28;20086;-82
2022/05/18 04:33:17;;;;;;;0.10;0.10;;;25.80;50.90;;;;;;5048094;28;20032;-80
2022/05/18 04:35:44;;;;;;;0.00;0.00;;;25.60;51.50;;;;;;5062693;28;20033;-79
2022/05/18 04:38:10;;;;;;;0.00;0.00;;;26.00;49.90;;;;;;5061485;28;20032;-80
2022/05/18 04:40:37;;;;;;;0.10;0.10;;;26.10;50.90;;;;;;5058423;28;20169;-81
2022/05/18 04:43:07;;;;;;;1.55;1.45;;;26.20;50.00;;;;;;5065012;28;20050;-81
2022/05/18 04:45:33;;;;;;;9.40;7.97;;;26.30;48.70;;;;;;5065001;28;20059;-79
2022/05/18 04:48:03;;;;;;;0.05;0.05;;;25.80;49.30;;;;;;5063408;28;20029;-79
2022/05/18 04:50:29;;;;;;;0.00;0.00;;;26.20;49.00;;;;;;5065214;28;20061;-79
2022/05/18 04:52:55;;;;;;;2.28;1.30;;;26.50;48.40;;;;;;5062834;28;20150;-81
2022/05/18 04:55:22;;;;;;;2.03;1.92;;;26.70;48.60;;;;;;5061187;28;20076;-81
2022/05/18 04:57:48;;;;;;;1.90;1.80;;;26.70;49.50;;;;;;5038220;28;20032;-80
2022/05/18 05:00:16;;;;;;;0.20;0.05;;;26.40;49.50;;;;;;5061591;28;20039;-80
2022/05/18 05:02:42;;;;;;;0.03;0.03;;;26.30;50.90;;;;;;5059184;28;20112;-79
2022/05/18 05:05:14;;;;;;;0.00;0.00;;;26.30;51.50;;;;;;5038165;28;20510;-80
2022/05/18 05:07:42;;;;;;;0.00;0.00;;;26.50;49.60;;;;;;5063366;28;20035;-80
2022/05/18 05:10:14;;;;;;;0.73;0.73;;;27.00;48.50;;;;;;5058866;28;20032;-80
2022/05/18 05:12:40;;;;;;;0.32;0.30;;;27.40;49.00;;;;;;5060515;28;20024;-80
2022/05/18 05:15:07;;;;;;;0.00;0.00;;;26.90;49.80;;;;;;5060037;28;20017;-80
2022/05/18 05:17:43;;;;;;;0.25;0.10;;;27.00;49.40;;;;;;5060302;28;20116;-80
2022/05/18 05:20:13;;;;;;;0.77;0.77;;;27.30;49.10;;;;;;5061528;28;20055;-80
2022/05/18 05:22:42;;;;;;;0.00;0.00;;;27.60;47.90;;;;;;5039974;28;20028;-79
2022/05/18 05:25:11;;;;;;;0.00;0.00;;;27.40;47.90;;;;;;5055136;28;20033;-78
2022/05/18 05:27:41;;;;;;;0.00;0.00;;;27.70;47.30;;;;;;5067487;28;20028;-78
2022/05/18 05:30:08;;;;;;;0.32;0.32;;;27.60;46.70;;;;;;5072956;28;20091;-79
2022/05/18 05:32:35;;;;;;;9.75;1.45;;;26.70;48.50;;;;;;5063152;28;20526;-80
2022/05/18 05:35:06;;;;;;;43.83;23.92;;;26.40;47.70;;;;;;5042887;28;20131;-80
2022/05/18 05:37:32;;;;;;;0.10;0.10;;;26.70;48.80;;;;;;5045783;28;20032;-81
2022/05/18 05:39:58;;;;;;;0.00;0.00;;;26.80;49.30;;;;;;5066091;28;20434;-81
2022/05/18 05:42:24;;;;;;;3.20;3.00;;;26.50;48.60;;;;;;5048360;28;20051;-81
2022/05/18 05:44:50;;;;;;;3.50;0.63;;;26.30;49.50;;;;;;5069256;28;20023;-81
2022/05/18 05:47:17;;;;;;;0.03;0.03;;;26.10;49.50;;;;;;5065076;28;20107;-80
2022/05/18 05:49:47;;;;;;;0.80;0.45;;;26.40;49.00;;;;;;5069094;28;20555;-82
2022/05/18 05:52:18;;;;;;;0.65;0.65;;;26.80;49.40;;;;;;5067360;28;20067;-81
2022/05/18 05:54:47;;;;;;;0.00;0.00;;;26.50;48.30;;;;;;5066646;28;20048;-80
2022/05/18 05:57:16;;;;;;;0.03;0.03;;;26.70;47.10;;;;;;5049579;28;20254;-81
2022/05/18 05:59:42;;;;;;;0.00;0.00;;;26.70;47.30;;;;;;5030734;28;20021;-80
2022/05/18 06:02:15;;;;;;;0.30;0.30;;;26.50;47.10;;;;;;5059761;28;20052;-81
2022/05/18 06:04:44;;;;;;;0.30;0.30;;;26.70;47.80;;;;;;5041935;28;20119;-82
2022/05/18 06:07:10;;;;;;;0.43;0.30;;;27.00;46.40;;;;;;5059307;28;20025;-81
2022/05/18 06:09:36;;;;;;;3.63;0.13;;;27.00;46.50;;;;;;5041921;28;20675;-81
2022/05/18 06:12:03;;;;;;;0.00;0.00;;;26.60;47.90;;;;;;5062312;28;20086;-81
2022/05/18 06:14:32;;;;;;;1.30;0.63;;;26.70;48.40;;;;;;5045422;28;20115;-79
2022/05/18 06:16:58;;;;;;;0.13;0.13;;;26.50;49.00;;;;;;5062290;28;20100;-81
2022/05/18 06:20:04;;;;;;;;;;;;;;;;;;;;;
2022/05/18 06:22:30;;;;;;;1.10;0.85;;;27.10;47.70;;;;;;5068183;28;20332;-81
2022/05/18 06:25:15;;;;;;;0.28;0.28;;;26.90;46.50;;;;;;5050147;28;20158;-80
2022/05/18 06:27:42;;;;;;;0.00;0.00;;;27.10;45.80;;;;;;5067171;28;20021;-80
2022/05/18 06:30:13;;;;;;;0.00;0.00;;;27.60;45.20;;;;;;5063804;28;20460;-81
2022/05/18 06:32:42;;;;;;;0.08;0.08;;;27.80;46.00;;;;;;5065625;28;20120;-81
2022/05/18 06:35:09;;;;;;;4.35;1.58;;;27.60;44.50;;;;;;5045731;28;20024;-80
2022/05/18 06:37:35;;;;;;;0.20;0.20;;;27.10;43.30;;;;;;5065293;28;20043;-80
2022/05/18 06:40:09;;;;;;;0.00;0.00;;;26.90;43.80;;;;;;5052608;28;20040;-81
2022/05/18 06:42:35;;;;;;;0.00;0.00;;;26.70;43.80;;;;;;5044654;28;20028;-79
2022/05/18 06:45:05;;;;;;;0.00;0.00;;;27.10;44.30;;;;;;5044350;28;20102;-80
2022/05/18 06:47:34;;;;;;;1.17;1.00;;;27.30;43.90;;;;;;5035168;28;20200;-80
2022/05/18 06:50:06;;;;;;;0.00;0.00;;;27.50;44.50;;;;;;5052382;28;20036;-79
2022/05/18 06:52:33;;;;;;;0.10;0.10;;;27.30;45.80;;;;;;5052668;28;20032;-79
2022/05/18 06:55:07;;;;;;;0.63;0.57;;;27.50;44.30;;;;;;5073197;28;20461;-79
2022/05/18 06:57:38;;;;;;;0.20;0.20;;;26.90;42.40;;;;;;5059130;28;20036;-80
2022/05/18 07:00:15;;;;;;;0.00;0.00;;;27.00;42.90;;;;;;5078089;28;20029;-80
2022/05/18 07:04:09;;;;;;;0.00;0.00;;;27.20;45.60;;;;;;5066482;28;20025;-81
2022/05/18 07:06:37;;;;;;;0.00;0.00;;;27.50;44.30;;;;;;5038638;28;20029;-79
2022/05/18 07:09:17;;;;;;;0.00;0.00;;;27.20;44.90;;;;;;5063713;28;20250;-81
2022/05/18 07:11:52;;;;;;;0.00;0.00;;;27.30;44.50;;;;;;5046957;28;20042;-82
2022/05/18 07:14:26;;;;;;;0.00;0.00;;;27.30;44.20;;;;;;5061913;28;20024;-81
2022/05/18 07:16:59;;;;;;;3.80;3.53;;;26.90;45.30;;;;;;5063621;28;20065;-81
2022/05/18 07:19:30;;;;;;;0.00;0.00;;;27.00;45.40;;;;;;5064585;28;20023;-81
2022/05/18 07:22:03;;;;;;;0.22;0.20;;;26.90;45.40;;;;;;5062898;28;20051;-80
2022/05/18 07:24:30;;;;;;;0.00;0.00;;;26.50;44.80;;;;;;5048080;28;20455;-81
2022/05/18 07:26:59;;;;;;;0.00;0.00;;;26.90;44.70;;;;;;5062687;28;20025;-81
2022/05/18 07:29:28;;;;;;;0.13;0.10;;;27.00;44.60;;;;;;5052932;28;20166;-80
2022/05/18 07:32:16;;;;;;;0.90;0.43;;;27.40;45.00;;;;;;5045771;28;20036;-81
2022/05/18 07:34:47;;;;;;;0.00;0.00;;;27.80;43.50;;;;;;5068094;28;20035;-80
2022/05/18 07:37:19;;;;;;;0.25;0.25;;;27.90;43.00;;;;;;5071028;28;20511;-80
2022/05/18 07:39:48;;;;;;;0.10;0.10;;;27.70;42.40;;;;;;5048357;28;20475;-80
2022/05/18 07:42:16;;;;;;;0.00;0.00;;;27.60;43.10;;;;;;5048695;28;20089;-81
2022/05/18 07:48:39;;;;;;;0.45;0.20;;;27.90;41.40;;;;;;5024964;28;20328;-80
2022/05/18 07:51:09;;;;;;;0.00;0.00;;;28.20;40.50;;;;;;5066839;28;20034;-80
2022/05/18 07:53:49;;;;;;;0.10;0.10;;;28.30;40.90;;;;;;5040457;28;20040;-80
2022/05/18 07:56:15;;;;;;;0.00;0.00;;;28.30;40.50;;;;;;5044847;28;20178;-81
2022/05/18 07:58:43;;;;;;;0.00;0.00;;;28.20;42.30;;;;;;5047113;28;20087;-79
2022/05/18 08:01:09;;;;;;;0.00;0.00;;;28.10;41.40;;;;;;5061797;28;20025;-81
2022/05/18 08:03:39;;;;;;;0.00;0.00;;;28.40;41.20;;;;;;5045836;28;20028;-80
2022/05/18 08:06:10;;;;;;;0.00;0.00;;;28.80;40.70;;;;;;5070045;28;20056;-81
2022/05/18 08:08:41;;;;;;;27.60;25.60;;;28.80;38.70;;;;;;5063816;28;20143;-81
2022/05/18 08:16:40;;;;;;;0.00;0.00;;;27.80;40.40;;;;;;5068922;28;20070;-80
2022/05/18 08:19:10;;;;;;;0.98;0.98;;;28.60;40.80;;;;;;5063535;28;20036;-80
2022/05/18 08:21:40;;;;;;;0.00;0.00;;;28.90;39.50;;;;;;5048834;28;20025;-80
2022/05/18 08:24:07;;;;;;;0.00;0.00;;;29.40;38.20;;;;;;5062907;28;20025;-81
2022/05/18 08:26:36;;;;;;;0.00;0.00;;;29.20;37.50;;;;;;5032618;28;20031;-80
2022/05/18 08:29:04;;;;;;;0.00;0.00;;;28.80;38.10;;;;;;5042114;28;20024;-80
2022/05/18 08:31:31;;;;;;;0.00;0.00;;;28.80;37.40;;;;;;5065589;28;20025;-80
2022/05/18 08:33:57;;;;;;;0.77;0.47;;;28.80;37.60;;;;;;5062865;28;20032;-79
2022/05/18 08:36:25;;;;;;;0.00;0.00;;;28.90;38.30;;;;;;5066189;28;20091;-80
2022/05/18 08:39:05;;;;;;;0.75;0.65;;;29.20;38.00;;;;;;5061236;28;20055;-80
2022/05/18 08:41:39;;;;;;;1.25;0.47;;;29.40;37.10;;;;;;5063619;28;20055;-79
2022/05/18 08:44:36;;;;;;;0.00;0.00;;;29.20;37.80;;;;;;5062533;28;20054;-79
2022/05/18 08:47:39;;;;;;;0.25;0.25;;;29.30;38.30;;;;;;5061261;28;20024;-79
2022/05/18 08:50:16;;;;;;;0.30;0.30;;;29.80;38.10;;;;;;5058973;28;20028;-79
2022/05/18 08:52:58;;;;;;;0.00;0.00;;;29.50;38.50;;;;;;5038930;28;20033;-79
2022/05/18 08:55:41;;;;;;;0.10;0.10;;;29.30;37.00;;;;;;5060050;28;20496;-79
2022/05/18 08:58:30;;;;;;;0.00;0.00;;;29.80;37.20;;;;;;5061612;28;20043;-79
2022/05/18 09:01:14;;;;;;;0.82;0.82;;;29.90;36.10;;;;;;5055604;28;20040;-80
2022/05/18 09:04:01;;;;;;;0.00;0.00;;;30.10;36.30;;;;;;5059768;28;20032;-80
2022/05/18 09:06:42;;;;;;;0.00;0.00;;;29.20;37.40;;;;;;5061118;28;20035;-80
2022/05/18 09:11:59;;;;;;;0.00;0.00;;;29.00;37.50;;;;;;5057948;28;20430;-80
2022/05/18 09:14:33;;;;;;;0.00;0.00;;;29.00;38.40;;;;;;5060438;28;20727;-79
2022/05/18 09:17:32;;;;;;;2.67;2.55;;;29.50;38.10;;;;;;5059824;28;20561;-81
2022/05/18 09:20:12;;;;;;;0.00;0.00;;;29.60;37.70;;;;;;5065438;28;20111;-81
2022/05/18 09:22:43;;;;;;;0.00;0.00;;;29.00;38.60;;;;;;5059468;28;20645;-80
2022/05/18 09:25:33;;;;;;;0.08;0.08;;;29.30;38.60;;;;;;5062695;28;20060;-80
2022/05/18 09:28:27;;;;;;;0.05;0.05;;;29.80;38.30;;;;;;5066638;28;20017;-78
2022/05/18 09:31:30;;;;;;;0.00;0.00;;;30.10;38.50;;;;;;5014801;28;20515;-80
2022/05/18 09:34:15;;;;;;;0.00;0.00;;;30.10;39.50;;;;;;5065266;28;20024;-80
2022/05/18 09:36:59;;;;;;;0.45;0.25;;;30.20;39.40;;;;;;5062368;28;20489;-80
2022/05/18 09:39:33;;;;;;;0.00;0.00;;;29.70;41.60;;;;;;5066142;28;20032;-78
2022/05/18 09:42:06;;;;;;;0.08;0.08;;;29.60;41.60;;;;;;5081575;28;20032;-79
2022/05/18 09:44:43;;;;;;;0.00;0.00;;;29.60;42.10;;;;;;5081388;28;20029;-78
2022/05/18 09:47:22;;;;;;;0.00;0.00;;;29.60;42.20;;;;;;5083204;28;20036;-79
2022/05/18 09:49:58;;;;;;;0.00;0.00;;;29.40;42.00;;;;;;5049313;28;20545;-80
2022/05/18 09:52:26;;;;;;;3.08;2.92;;;29.20;42.10;;;;;;5060659;28;20731;-80
2022/05/18 09:55:00;;;;;;;0.00;0.00;;;29.10;42.00;;;;;;5044377;28;20060;-79
2022/05/18 09:57:32;;;;;;;0.00;0.00;;;29.10;42.40;;;;;;5041795;28;20630;-79
2022/05/18 10:00:06;;;;;;;0.00;0.00;;;29.00;42.80;;;;;;5042363;28;20035;-79
2022/05/18 10:08:34;;;;;;;0.00;0.00;;;28.00;45.70;;;;;;5064146;28;20498;-83
2022/05/18 10:11:13;;;;;;;0.00;0.00;;;27.90;45.30;;;;;;5062129;28;20525;-84
2022/05/18 10:13:59;;;;;;;0.00;0.00;;;28.20;45.20;;;;;;5060206;28;20036;-83
2022/05/18 10:16:45;;;;;;;0.10;0.10;;;28.10;46.30;;;;;;5063491;28;20052;-84
2022/05/18 10:19:24;;;;;;;0.10;0.10;;;28.00;47.30;;;;;;5064825;28;20052;-84
2022/05/18 10:21:55;;;;;;;0.00;0.00;;;27.60;47.40;;;;;;5039198;28;20025;-83
2022/05/18 10:24:33;;;;;;;0.00;0.00;;;27.20;47.60;;;;;;5041355;28;20241;-83
2022/05/18 10:27:21;;;;;;;1.10;0.32;;;27.00;48.70;;;;;;5065323;28;20509;-80
2022/05/18 10:30:28;;;;;;;0.00;0.00;;;27.00;48.20;;;;;;5065581;28;20041;-82
2022/05/18 10:33:12;;;;;;;0.10;0.10;;;26.70;47.90;;;;;;5041949;28;20131;-82
2022/05/18 10:35:48;;;;;;;1.10;1.08;;;26.20;49.90;;;;;;5061975;28;20561;-81
2022/05/18 10:38:19;;;;;;;0.00;0.00;;;26.00;48.80;;;;;;5060601;28;20557;-81
2022/05/18 10:40:46;;;;;;;0.32;0.32;;;26.00;48.10;;;;;;5049973;28;20029;-81
2022/05/18 10:43:33;;;;;;;0.00;0.00;;;26.20;47.80;;;;;;5061280;28;20345;-81
2022/05/18 10:46:15;;;;;;;0.70;0.10;;;26.40;47.70;;;;;;5062643;28;20034;-82
2022/05/18 10:48:54;;;;;;;0.10;0.10;;;26.30;47.30;;;;;;5047910;28;20039;-82
2022/05/18 10:51:39;;;;;;;0.00;0.00;;;26.30;47.30;;;;;;5060131;28;20420;-82
2022/05/18 10:54:25;;;;;;;0.05;0.03;;;26.30;47.50;;;;;;5059312;28;20498;-81
2022/05/18 10:57:08;;;;;;;5.07;3.85;;;26.30;47.70;;;;;;5058732;28;20052;-82
2022/05/18 10:59:49;;;;;;;0.00;0.00;;;26.30;46.80;;;;;;5060067;28;20713;-82
2022/05/18 11:02:27;;;;;;;0.08;0.03;;;26.20;46.80;;;;;;5043253;28;20604;-82
2022/05/18 11:05:23;;;;;;;0.70;0.63;;;26.30;46.80;;;;;;5067379;28;20027;-82
2022/05/18 11:07:50;;;;;;;0.00;0.00;;;26.30;47.20;;;;;;5066107;28;20025;-82
2022/05/18 11:10:16;;;;;;;0.70;0.57;;;26.20;47.60;;;;;;5050832;28;20603;-80
2022/05/18 11:12:51;;;;;;;0.00;0.00;;;26.10;47.90;;;;;;5036252;28;20545;-81
2022/05/18 11:15:31;;;;;;;0.00;0.00;;;26.10;48.30;;;;;;5065520;28;20074;-82
2022/05/18 11:18:11;;;;;;;0.10;0.00;;;25.90;48.80;;;;;;5050665;28;20036;-82
2022/05/18 11:21:26;;;;;;;0.75;0.55;;;25.90;49.30;;;;;;5064442;28;20044;-82
2022/05/18 11:24:27;;;;;;;0.00;0.00;;;26.00;49.20;;;;;;5068680;28;20029;-82
2022/05/18 11:27:05;;;;;;;0.00;0.00;;;25.90;48.70;;;;;;5067555;28;20437;-83
2022/05/18 11:30:00;;;;;;;0.00;0.00;;;26.00;48.50;;;;;;5059293;28;20032;-80
2022/05/18 11:32:31;;;;;;;0.00;0.00;;;26.00;48.10;;;;;;5058270;28;20071;-82
2022/05/18 11:35:03;;;;;;;0.00;0.00;;;26.10;47.20;;;;;;5064119;28;20031;-82
2022/05/18 11:37:44;;;;;;;0.00;0.00;;;26.10;47.00;;;;;;5042238;28;20041;-82
2022/05/18 11:40:25;;;;;;;0.00;0.00;;;26.00;47.10;;;;;;5071456;28;20024;-82
2022/05/18 11:43:29;;;;;;;0.00;0.00;;;26.00;46.60;;;;;;5071334;28;20028;-81
2022/05/18 11:46:41;;;;;;;0.00;0.00;;;25.90;47.10;;;;;;5070865;28;20033;-81
2022/05/18 11:49:46;;;;;;;4.20;1.63;;;25.90;47.80;;;;;;5086603;28;20491;-82
2022/05/18 12:00:56;;;;;;;0.25;0.25;;;25.10;51.70;;;;;;4962613;28;20448;-82
2022/05/18 12:03:45;;;;;;;0.32;0.32;;;24.60;53.30;;;;;;4929520;29;20035;-82
2022/05/18 12:06:29;;;;;;;0.52;0.52;;;24.00;55.30;;;;;;4984345;28;20060;-82
2022/05/18 12:13:18;;;;;;;0.43;0.43;;;23.30;60.50;;;;;;4958850;28;20420;-81
2022/05/18 12:16:03;;;;;;;0.03;0.03;;;22.50;68.70;;;;;;5016028;28;20498;-81
2022/05/18 12:18:49;;;;;;;0.00;0.00;;;22.30;92.20;;;;;;5078869;28;20017;-82
2022/05/18 12:21:28;;;;;;;0.00;0.00;;;22.00;99.90;;;;;;5065156;28;20479;-82
2022/05/18 12:24:02;;;;;;;0.00;0.00;;;22.00;99.90;;;;;;5066491;28;20043;-83
2022/05/18 12:26:31;;;;;;;0.00;0.00;;;22.00;99.90;;;;;;5054170;28;20024;-80
2022/05/18 12:28:58;;;;;;;0.65;0.50;;;21.90;99.90;;;;;;5074740;28;20023;-82
2022/05/18 12:31:26;;;;;;;0.00;0.00;;;21.90;99.90;;;;;;5071215;28;20024;-83
2022/05/18 12:34:14;;;;;;;0.32;0.30;;;22.20;99.90;;;;;;5063452;28;20028;-81
2022/05/18 12:36:51;;;;;;;0.47;0.43;;;22.40;99.90;;;;;;5071580;28;20024;-81
2022/05/18 12:39:39;;;;;;;1.05;0.30;;;22.60;99.90;;;;;;5077374;28;20323;-81
2022/05/18 12:42:09;;;;;;;0.00;0.00;;;22.70;98.90;;;;;;5065426;28;20028;-82
2022/05/18 12:44:49;;;;;;;0.00;0.00;;;22.60;99.40;;;;;;5073432;28;20414;-81
2022/05/18 12:47:40;;;;;;;0.00;0.00;;;22.50;98.40;;;;;;5067822;28;20124;-82
2022/05/18 12:50:15;;;;;;;0.80;0.80;;;22.80;99.70;;;;;;5072120;28;20036;-82
2022/05/18 12:52:59;;;;;;;0.05;0.05;;;22.90;94.30;;;;;;5072622;28;20043;-83
2022/05/18 12:55:25;;;;;;;22.35;0.93;;;23.00;90.60;;;;;;5049513;28;20056;-82
2022/05/18 12:58:03;;;;;;;0.00;0.00;;;22.90;90.90;;;;;;5070889;28;20016;-82
2022/05/18 13:00:30;;;;;;;1.25;1.13;;;23.00;90.10;;;;;;5052735;28;20051;-81
2022/05/18 13:03:19;;;;;;;0.00;0.00;;;23.00;86.40;;;;;;5070864;28;20491;-81
2022/05/18 13:05:51;;;;;;;0.30;0.30;;;23.00;86.50;;;;;;5066185;28;20036;-81
2022/05/18 13:08:17;;;;;;;0.20;0.20;;;23.30;87.70;;;;;;5066254;28;20025;-81
2022/05/18 13:11:27;;;;;;;0.00;0.00;;;23.20;84.00;;;;;;5077708;28;20151;-82
2022/05/18 13:14:05;;;;;;;0.00;0.00;;;23.30;85.00;;;;;;5035310;28;20503;-82
2022/05/18 13:16:37;;;;;;;0.00;0.00;;;23.10;83.60;;;;;;5070650;28;20033;-82
2022/05/18 13:19:31;;;;;;;0.00;0.00;;;23.20;82.40;;;;;;5072539;28;20023;-82
2022/05/18 13:22:05;;;;;;;0.00;0.00;;;23.40;80.00;;;;;;5051691;28;20028;-82
2022/05/18 13:24:35;;;;;;;0.90;0.65;;;23.60;79.40;;;;;;5066951;28;20017;-82
2022/05/18 13:31:19;;;;;;;0.00;0.00;;;23.10;85.70;;;;;;4976183;28;20039;-82
2022/05/18 13:33:58;;;;;;;0.00;0.00;;;23.00;83.60;;;;;;4897341;29;21494;-82
2022/05/18 13:36:52;;;;;;;2.70;0.70;;;23.10;85.00;;;;;;5034370;28;20043;-81
2022/05/18 13:39:30;;;;;;;8.82;1.58;;;23.00;81.50;;;;;;5069221;28;20143;-83
2022/05/18 13:41:57;;;;;;;0.22;0.22;;;22.90;80.30;;;;;;5064362;28;20108;-84
2022/05/18 13:44:30;;;;;;;0.00;0.00;;;22.60;83.70;;;;;;5069776;28;20052;-83
2022/05/18 13:46:59;;;;;;;0.10;0.10;;;22.40;83.80;;;;;;5078931;28;20115;-82
2022/05/18 13:49:28;;;;;;;0.28;0.28;;;22.50;81.70;;;;;;5065455;28;20032;-82
2022/05/18 13:52:12;;;;;;;0.57;0.47;;;22.40;81.80;;;;;;5069249;28;20020;-81
2022/05/18 13:54:41;;;;;;;0.00;0.00;;;22.60;79.20;;;;;;5063115;28;20036;-83
2022/05/18 13:57:12;;;;;;;0.00;0.00;;;22.40;82.80;;;;;;5074359;28;20063;-82
2022/05/18 13:59:48;;;;;;;0.10;0.10;;;22.60;82.70;;;;;;5080283;28;20095;-82
2022/05/18 14:02:22;;;;;;;0.75;0.75;;;22.80;82.90;;;;;;5064770;28;20131;-82
2022/05/18 14:04:56;;;;;;;0.00;0.00;;;22.70;86.80;;;;;;5044355;28;20025;-82